sensor_id;sensor_type;location;lat;lon;timestamp;P1;durP1;ratioP1;P2;durP2;ratioP2
846;SDS011;410;48.954;9.474;2024-02-16T00:00:32;7.53;;;5.20;;
846;SDS011;410;48.954;9.474;2024-02-16T00:02:35;8.13;;;5.73;;
846;SDS011;410;48.954;9.474;2024-02-16T00:04:38;7.90;;;5.30;;
846;SDS011;410;48.954;9.474;2024-02-16T00:06:41;8.00;;;5.80;;
846;SDS011;410;48.954;9.474;2024-02-16T00:08:45;8.57;;;5.80;;
846;SDS011;410;48.954;9.474;2024-02-16T00:10:50;7.00;;;5.67;;
846;SDS011;410;48.954;9.474;2024-02-16T00:12:53;7.00;;;5.00;;
846;SDS011;410;48.954;9.474;2024-02-16T00:14:56;6.83;;;5.30;;
846;SDS011;410;48.954;9.474;2024-02-16T00:17:01;7.70;;;5.63;;
846;SDS011;410;48.954;9.474;2024-02-16T00:19:05;6.80;;;5.60;;
846;SDS011;410;48.954;9.474;2024-02-16T00:21:08;8.23;;;5.47;;
846;SDS011;410;48.954;9.474;2024-02-16T00:23:11;8.00;;;5.30;;
846;SDS011;410;48.954;9.474;2024-02-16T00:25:14;7.00;;;5.73;;
846;SDS011;410;48.954;9.474;2024-02-16T00:27:18;7.00;;;5.30;;
846;SDS011;410;48.954;9.474;2024-02-16T00:29:21;9.70;;;4.97;;
846;SDS011;410;48.954;9.474;2024-02-16T00:31:25;8.23;;;5.37;;
846;SDS011;410;48.954;9.474;2024-02-16T00:33:28;7.80;;;5.67;;
846;SDS011;410;48.954;9.474;2024-02-16T00:35:31;7.00;;;5.47;;
846;SDS011;410;48.954;9.474;2024-02-16T00:37:35;10.73;;;5.73;;
846;SDS011;410;48.954;9.474;2024-02-16T00:39:39;7.90;;;5.67;;
846;SDS011;410;48.954;9.474;2024-02-16T00:41:42;8.00;;;6.13;;
846;SDS011;410;48.954;9.474;2024-02-16T00:43:49;7.03;;;5.67;;
846;SDS011;410;48.954;9.474;2024-02-16T00:45:53;7.83;;;5.67;;
846;SDS011;410;48.954;9.474;2024-02-16T00:47:57;8.60;;;6.00;;
846;SDS011;410;48.954;9.474;2024-02-16T00:50:01;7.90;;;5.37;;
846;SDS011;410;48.954;9.474;2024-02-16T00:52:07;6.53;;;5.33;;
846;SDS011;410;48.954;9.474;2024-02-16T00:54:12;7.67;;;5.60;;
846;SDS011;410;48.954;9.474;2024-02-16T00:56:15;7.17;;;5.20;;
846;SDS011;410;48.954;9.474;2024-02-16T00:58:17;9.20;;;6.20;;
846;SDS011;410;48.954;9.474;2024-02-16T01:00:22;8.63;;;5.70;;
846;SDS011;410;48.954;9.474;2024-02-16T01:02:25;9.67;;;5.43;;
846;SDS011;410;48.954;9.474;2024-02-16T01:04:30;8.40;;;6.03;;
846;SDS011;410;48.954;9.474;2024-02-16T01:06:34;7.80;;;5.63;;
846;SDS011;410;48.954;9.474;2024-02-16T01:08:37;5.67;;;4.90;;
846;SDS011;410;48.954;9.474;2024-02-16T01:10:40;7.83;;;5.27;;
846;SDS011;410;48.954;9.474;2024-02-16T01:12:44;6.30;;;4.60;;
846;SDS011;410;48.954;9.474;2024-02-16T01:14:47;8.80;;;5.43;;
846;SDS011;410;48.954;9.474;2024-02-16T01:16:51;6.37;;;4.90;;
846;SDS011;410;48.954;9.474;2024-02-16T01:18:54;9.50;;;5.00;;
846;SDS011;410;48.954;9.474;2024-02-16T01:20:58;9.03;;;5.63;;
846;SDS011;410;48.954;9.474;2024-02-16T01:23:02;6.83;;;4.77;;
846;SDS011;410;48.954;9.474;2024-02-16T01:25:07;8.97;;;5.20;;
846;SDS011;410;48.954;9.474;2024-02-16T01:27:11;6.37;;;4.97;;
846;SDS011;410;48.954;9.474;2024-02-16T01:29:14;10.27;;;5.30;;
846;SDS011;410;48.954;9.474;2024-02-16T01:31:17;10.50;;;6.57;;
846;SDS011;410;48.954;9.474;2024-02-16T01:33:22;8.97;;;5.77;;
846;SDS011;410;48.954;9.474;2024-02-16T01:35:25;8.57;;;5.93;;
846;SDS011;410;48.954;9.474;2024-02-16T01:37:28;6.27;;;4.90;;
846;SDS011;410;48.954;9.474;2024-02-16T01:39:31;8.73;;;5.10;;
846;SDS011;410;48.954;9.474;2024-02-16T01:41:37;14.53;;;5.60;;
846;SDS011;410;48.954;9.474;2024-02-16T01:43:41;7.40;;;4.80;;
846;SDS011;410;48.954;9.474;2024-02-16T01:45:44;8.67;;;5.00;;
846;SDS011;410;48.954;9.474;2024-02-16T01:47:48;7.43;;;5.30;;
846;SDS011;410;48.954;9.474;2024-02-16T01:49:54;8.13;;;5.47;;
846;SDS011;410;48.954;9.474;2024-02-16T01:51:58;7.17;;;5.00;;
846;SDS011;410;48.954;9.474;2024-02-16T01:54:01;7.13;;;5.97;;
846;SDS011;410;48.954;9.474;2024-02-16T01:56:04;7.50;;;5.37;;
846;SDS011;410;48.954;9.474;2024-02-16T01:58:08;8.10;;;6.00;;
846;SDS011;410;48.954;9.474;2024-02-16T02:00:11;7.77;;;5.40;;
846;SDS011;410;48.954;9.474;2024-02-16T02:02:16;11.13;;;5.40;;
846;SDS011;410;48.954;9.474;2024-02-16T02:04:20;14.57;;;9.03;;
846;SDS011;410;48.954;9.474;2024-02-16T02:06:24;11.07;;;7.13;;
846;SDS011;410;48.954;9.474;2024-02-16T02:08:28;11.43;;;5.97;;
846;SDS011;410;48.954;9.474;2024-02-16T02:10:31;8.77;;;6.00;;
846;SDS011;410;48.954;9.474;2024-02-16T02:12:34;12.27;;;6.03;;
846;SDS011;410;48.954;9.474;2024-02-16T02:14:37;10.03;;;6.07;;
846;SDS011;410;48.954;9.474;2024-02-16T02:16:41;7.30;;;5.40;;
846;SDS011;410;48.954;9.474;2024-02-16T02:18:56;8.30;;;6.20;;
846;SDS011;410;48.954;9.474;2024-02-16T02:20:59;7.93;;;6.00;;
846;SDS011;410;48.954;9.474;2024-02-16T02:23:04;8.37;;;5.83;;
846;SDS011;410;48.954;9.474;2024-02-16T02:25:07;7.40;;;5.30;;
846;SDS011;410;48.954;9.474;2024-02-16T02:27:12;9.10;;;5.70;;
846;SDS011;410;48.954;9.474;2024-02-16T02:29:15;9.43;;;7.50;;
846;SDS011;410;48.954;9.474;2024-02-16T02:31:18;8.20;;;5.90;;
846;SDS011;410;48.954;9.474;2024-02-16T02:33:21;14.10;;;9.10;;
846;SDS011;410;48.954;9.474;2024-02-16T02:35:25;10.23;;;6.90;;
846;SDS011;410;48.954;9.474;2024-02-16T02:37:28;7.10;;;5.60;;
846;SDS011;410;48.954;9.474;2024-02-16T02:39:33;9.93;;;6.30;;
846;SDS011;410;48.954;9.474;2024-02-16T02:41:36;10.33;;;6.60;;
846;SDS011;410;48.954;9.474;2024-02-16T02:43:39;11.70;;;6.80;;
846;SDS011;410;48.954;9.474;2024-02-16T02:45:43;9.70;;;7.17;;
846;SDS011;410;48.954;9.474;2024-02-16T02:47:46;7.97;;;5.93;;
846;SDS011;410;48.954;9.474;2024-02-16T02:49:50;7.80;;;6.20;;
846;SDS011;410;48.954;9.474;2024-02-16T02:51:53;9.97;;;6.40;;
846;SDS011;410;48.954;9.474;2024-02-16T02:53:56;8.57;;;6.80;;
846;SDS011;410;48.954;9.474;2024-02-16T02:56:01;10.47;;;6.87;;
846;SDS011;410;48.954;9.474;2024-02-16T02:58:03;10.57;;;6.27;;
846;SDS011;410;48.954;9.474;2024-02-16T03:00:07;7.40;;;6.10;;
846;SDS011;410;48.954;9.474;2024-02-16T03:02:14;9.63;;;6.40;;
846;SDS011;410;48.954;9.474;2024-02-16T03:04:18;13.33;;;5.97;;
846;SDS011;410;48.954;9.474;2024-02-16T03:06:22;7.80;;;5.50;;
846;SDS011;410;48.954;9.474;2024-02-16T03:08:25;9.70;;;6.33;;
846;SDS011;410;48.954;9.474;2024-02-16T03:10:28;8.80;;;5.50;;
846;SDS011;410;48.954;9.474;2024-02-16T03:12:37;8.47;;;5.63;;
846;SDS011;410;48.954;9.474;2024-02-16T03:14:40;14.20;;;5.97;;
846;SDS011;410;48.954;9.474;2024-02-16T03:16:44;8.83;;;5.50;;
846;SDS011;410;48.954;9.474;2024-02-16T03:18:47;9.37;;;5.50;;
846;SDS011;410;48.954;9.474;2024-02-16T03:20:50;9.60;;;5.63;;
846;SDS011;410;48.954;9.474;2024-02-16T03:22:54;10.83;;;5.20;;
846;SDS011;410;48.954;9.474;2024-02-16T03:24:57;8.00;;;5.40;;
846;SDS011;410;48.954;9.474;2024-02-16T03:27:01;8.50;;;5.00;;
846;SDS011;410;48.954;9.474;2024-02-16T03:29:05;7.13;;;5.03;;
846;SDS011;410;48.954;9.474;2024-02-16T03:31:14;8.07;;;5.53;;
846;SDS011;410;48.954;9.474;2024-02-16T03:33:20;7.40;;;5.30;;
846;SDS011;410;48.954;9.474;2024-02-16T03:35:23;11.00;;;5.87;;
846;SDS011;410;48.954;9.474;2024-02-16T03:37:27;9.33;;;5.37;;
846;SDS011;410;48.954;9.474;2024-02-16T03:39:30;7.83;;;5.10;;
846;SDS011;410;48.954;9.474;2024-02-16T03:41:33;8.13;;;5.40;;
846;SDS011;410;48.954;9.474;2024-02-16T03:43:36;8.13;;;5.50;;
846;SDS011;410;48.954;9.474;2024-02-16T03:45:41;9.67;;;5.70;;
846;SDS011;410;48.954;9.474;2024-02-16T03:47:44;7.40;;;6.07;;
846;SDS011;410;48.954;9.474;2024-02-16T03:49:51;9.40;;;6.80;;
846;SDS011;410;48.954;9.474;2024-02-16T03:51:55;8.20;;;5.60;;
846;SDS011;410;48.954;9.474;2024-02-16T03:53:58;8.07;;;6.20;;
846;SDS011;410;48.954;9.474;2024-02-16T03:56:00;9.13;;;6.27;;
846;SDS011;410;48.954;9.474;2024-02-16T03:58:03;13.20;;;6.43;;
846;SDS011;410;48.954;9.474;2024-02-16T04:00:07;7.70;;;5.17;;
846;SDS011;410;48.954;9.474;2024-02-16T04:02:16;6.90;;;4.30;;
846;SDS011;410;48.954;9.474;2024-02-16T04:04:20;15.37;;;4.90;;
846;SDS011;410;48.954;9.474;2024-02-16T04:06:25;5.90;;;4.40;;
846;SDS011;410;48.954;9.474;2024-02-16T04:08:28;6.27;;;4.80;;
846;SDS011;410;48.954;9.474;2024-02-16T04:10:31;7.00;;;4.47;;
846;SDS011;410;48.954;9.474;2024-02-16T04:12:34;6.37;;;4.63;;
846;SDS011;410;48.954;9.474;2024-02-16T04:14:38;7.47;;;4.57;;
846;SDS011;410;48.954;9.474;2024-02-16T04:16:43;8.17;;;5.00;;
846;SDS011;410;48.954;9.474;2024-02-16T04:18:47;6.80;;;4.60;;
846;SDS011;410;48.954;9.474;2024-02-16T04:20:51;7.07;;;4.67;;
846;SDS011;410;48.954;9.474;2024-02-16T04:22:54;9.43;;;4.90;;
846;SDS011;410;48.954;9.474;2024-02-16T04:24:57;5.77;;;4.40;;
846;SDS011;410;48.954;9.474;2024-02-16T04:27:00;7.37;;;4.97;;
846;SDS011;410;48.954;9.474;2024-02-16T04:29:08;5.33;;;4.43;;
846;SDS011;410;48.954;9.474;2024-02-16T04:31:11;5.90;;;4.50;;
846;SDS011;410;48.954;9.474;2024-02-16T04:33:13;11.60;;;4.60;;
846;SDS011;410;48.954;9.474;2024-02-16T04:35:18;6.17;;;4.50;;
846;SDS011;410;48.954;9.474;2024-02-16T04:37:21;8.90;;;5.17;;
846;SDS011;410;48.954;9.474;2024-02-16T04:39:24;9.13;;;4.33;;
846;SDS011;410;48.954;9.474;2024-02-16T04:41:28;9.47;;;4.63;;
846;SDS011;410;48.954;9.474;2024-02-16T04:43:31;6.10;;;4.30;;
846;SDS011;410;48.954;9.474;2024-02-16T04:45:35;7.63;;;4.17;;
846;SDS011;410;48.954;9.474;2024-02-16T04:47:38;7.20;;;4.57;;
846;SDS011;410;48.954;9.474;2024-02-16T04:49:42;6.77;;;4.73;;
846;SDS011;410;48.954;9.474;2024-02-16T04:51:47;6.43;;;4.10;;
846;SDS011;410;48.954;9.474;2024-02-16T04:53:50;6.70;;;4.27;;
846;SDS011;410;48.954;9.474;2024-02-16T04:55:54;6.27;;;4.40;;
846;SDS011;410;48.954;9.474;2024-02-16T04:57:57;7.87;;;4.37;;
846;SDS011;410;48.954;9.474;2024-02-16T05:00:00;8.03;;;4.67;;
846;SDS011;410;48.954;9.474;2024-02-16T05:02:03;6.60;;;4.20;;
846;SDS011;410;48.954;9.474;2024-02-16T05:04:08;7.43;;;4.70;;
846;SDS011;410;48.954;9.474;2024-02-16T05:06:12;6.00;;;4.20;;
846;SDS011;410;48.954;9.474;2024-02-16T05:08:18;6.50;;;4.73;;
846;SDS011;410;48.954;9.474;2024-02-16T05:10:22;6.50;;;4.37;;
846;SDS011;410;48.954;9.474;2024-02-16T05:12:25;6.53;;;4.27;;
846;SDS011;410;48.954;9.474;2024-02-16T05:14:28;6.80;;;4.53;;
846;SDS011;410;48.954;9.474;2024-02-16T05:16:31;8.57;;;5.77;;
846;SDS011;410;48.954;9.474;2024-02-16T05:18:34;8.10;;;4.80;;
846;SDS011;410;48.954;9.474;2024-02-16T05:20:38;8.33;;;4.87;;
846;SDS011;410;48.954;9.474;2024-02-16T05:22:42;7.50;;;4.93;;
846;SDS011;410;48.954;9.474;2024-02-16T05:24:48;6.23;;;4.70;;
846;SDS011;410;48.954;9.474;2024-02-16T05:26:52;12.93;;;4.80;;
846;SDS011;410;48.954;9.474;2024-02-16T05:28:56;9.10;;;5.10;;
846;SDS011;410;48.954;9.474;2024-02-16T05:30:59;6.23;;;4.60;;
846;SDS011;410;48.954;9.474;2024-02-16T05:33:11;6.80;;;4.90;;
846;SDS011;410;48.954;9.474;2024-02-16T05:35:15;6.80;;;4.60;;
846;SDS011;410;48.954;9.474;2024-02-16T05:37:19;9.00;;;4.90;;
846;SDS011;410;48.954;9.474;2024-02-16T05:39:23;8.77;;;5.20;;
846;SDS011;410;48.954;9.474;2024-02-16T05:41:34;8.70;;;4.97;;
846;SDS011;410;48.954;9.474;2024-02-16T05:43:39;8.33;;;5.03;;
846;SDS011;410;48.954;9.474;2024-02-16T05:45:42;9.30;;;5.40;;
846;SDS011;410;48.954;9.474;2024-02-16T05:47:45;9.03;;;5.20;;
846;SDS011;410;48.954;9.474;2024-02-16T05:49:49;8.57;;;5.40;;
846;SDS011;410;48.954;9.474;2024-02-16T05:51:52;7.90;;;5.20;;
846;SDS011;410;48.954;9.474;2024-02-16T05:54:18;7.63;;;4.43;;
846;SDS011;410;48.954;9.474;2024-02-16T05:56:23;8.73;;;5.20;;
846;SDS011;410;48.954;9.474;2024-02-16T05:58:28;5.63;;;4.00;;
846;SDS011;410;48.954;9.474;2024-02-16T06:00:32;7.10;;;4.43;;
846;SDS011;410;48.954;9.474;2024-02-16T06:02:37;7.30;;;4.63;;
846;SDS011;410;48.954;9.474;2024-02-16T06:04:39;6.27;;;4.20;;
846;SDS011;410;48.954;9.474;2024-02-16T06:06:42;7.93;;;4.40;;
846;SDS011;410;48.954;9.474;2024-02-16T06:08:44;6.70;;;4.10;;
846;SDS011;410;48.954;9.474;2024-02-16T06:10:47;5.67;;;3.90;;
846;SDS011;410;48.954;9.474;2024-02-16T06:12:55;4.90;;;3.83;;
846;SDS011;410;48.954;9.474;2024-02-16T06:14:59;5.23;;;4.40;;
846;SDS011;410;48.954;9.474;2024-02-16T06:17:02;8.10;;;4.37;;
846;SDS011;410;48.954;9.474;2024-02-16T06:19:05;5.63;;;3.63;;
846;SDS011;410;48.954;9.474;2024-02-16T06:21:10;7.10;;;3.90;;
846;SDS011;410;48.954;9.474;2024-02-16T06:23:15;4.70;;;3.70;;
846;SDS011;410;48.954;9.474;2024-02-16T06:25:19;7.20;;;4.67;;
846;SDS011;410;48.954;9.474;2024-02-16T06:27:23;5.03;;;3.90;;
846;SDS011;410;48.954;9.474;2024-02-16T06:29:26;6.60;;;4.57;;
846;SDS011;410;48.954;9.474;2024-02-16T06:31:31;6.13;;;4.20;;
846;SDS011;410;48.954;9.474;2024-02-16T06:33:35;7.37;;;4.53;;
846;SDS011;410;48.954;9.474;2024-02-16T06:35:38;5.50;;;4.30;;
846;SDS011;410;48.954;9.474;2024-02-16T06:37:41;6.30;;;4.50;;
846;SDS011;410;48.954;9.474;2024-02-16T06:39:44;6.47;;;4.47;;
846;SDS011;410;48.954;9.474;2024-02-16T06:41:48;7.10;;;4.40;;
846;SDS011;410;48.954;9.474;2024-02-16T06:43:52;6.73;;;4.27;;
846;SDS011;410;48.954;9.474;2024-02-16T06:45:55;7.50;;;4.50;;
846;SDS011;410;48.954;9.474;2024-02-16T06:48:00;8.00;;;3.70;;
846;SDS011;410;48.954;9.474;2024-02-16T06:50:03;5.57;;;3.67;;
846;SDS011;410;48.954;9.474;2024-02-16T06:52:07;5.07;;;4.20;;
846;SDS011;410;48.954;9.474;2024-02-16T06:54:12;5.27;;;4.30;;
846;SDS011;410;48.954;9.474;2024-02-16T06:56:16;5.27;;;3.90;;
846;SDS011;410;48.954;9.474;2024-02-16T06:58:19;5.43;;;4.30;;
846;SDS011;410;48.954;9.474;2024-02-16T07:00:23;5.43;;;4.37;;
846;SDS011;410;48.954;9.474;2024-02-16T07:02:26;7.10;;;4.30;;
846;SDS011;410;48.954;9.474;2024-02-16T07:04:30;5.87;;;4.10;;
846;SDS011;410;48.954;9.474;2024-02-16T07:06:34;5.00;;;3.87;;
846;SDS011;410;48.954;9.474;2024-02-16T07:08:37;5.60;;;3.50;;
846;SDS011;410;48.954;9.474;2024-02-16T07:10:40;8.30;;;4.20;;
846;SDS011;410;48.954;9.474;2024-02-16T07:12:43;9.30;;;4.67;;
846;SDS011;410;48.954;9.474;2024-02-16T07:14:47;5.53;;;4.27;;
846;SDS011;410;48.954;9.474;2024-02-16T07:16:52;11.90;;;6.10;;
846;SDS011;410;48.954;9.474;2024-02-16T07:18:55;5.00;;;4.13;;
846;SDS011;410;48.954;9.474;2024-02-16T07:21:00;7.27;;;5.00;;
846;SDS011;410;48.954;9.474;2024-02-16T07:23:03;7.53;;;4.97;;
846;SDS011;410;48.954;9.474;2024-02-16T07:25:06;7.60;;;5.17;;
846;SDS011;410;48.954;9.474;2024-02-16T07:27:10;8.37;;;4.87;;
846;SDS011;410;48.954;9.474;2024-02-16T07:29:13;7.73;;;5.40;;
846;SDS011;410;48.954;9.474;2024-02-16T07:31:18;7.90;;;5.53;;
846;SDS011;410;48.954;9.474;2024-02-16T07:33:21;9.97;;;8.43;;
846;SDS011;410;48.954;9.474;2024-02-16T07:35:26;23.03;;;20.83;;
846;SDS011;410;48.954;9.474;2024-02-16T07:37:31;10.80;;;9.70;;
846;SDS011;410;48.954;9.474;2024-02-16T07:39:35;6.77;;;5.17;;
846;SDS011;410;48.954;9.474;2024-02-16T07:41:38;8.83;;;5.43;;
846;SDS011;410;48.954;9.474;2024-02-16T07:43:42;13.10;;;9.40;;
846;SDS011;410;48.954;9.474;2024-02-16T07:45:45;13.53;;;9.50;;
846;SDS011;410;48.954;9.474;2024-02-16T07:47:48;14.60;;;9.20;;
846;SDS011;410;48.954;9.474;2024-02-16T07:49:52;17.97;;;10.60;;
846;SDS011;410;48.954;9.474;2024-02-16T07:51:56;16.00;;;10.20;;
846;SDS011;410;48.954;9.474;2024-02-16T07:54:00;11.90;;;7.50;;
846;SDS011;410;48.954;9.474;2024-02-16T07:56:05;9.73;;;5.67;;
846;SDS011;410;48.954;9.474;2024-02-16T07:58:08;6.87;;;5.37;;
846;SDS011;410;48.954;9.474;2024-02-16T08:00:12;7.00;;;5.53;;
846;SDS011;410;48.954;9.474;2024-02-16T08:02:17;8.10;;;6.10;;
846;SDS011;410;48.954;9.474;2024-02-16T08:04:21;9.07;;;6.13;;
846;SDS011;410;48.954;9.474;2024-02-16T08:06:25;6.60;;;4.87;;
846;SDS011;410;48.954;9.474;2024-02-16T08:08:29;6.93;;;5.03;;
846;SDS011;410;48.954;9.474;2024-02-16T08:10:33;7.50;;;5.70;;
846;SDS011;410;48.954;9.474;2024-02-16T08:12:37;8.27;;;5.03;;
846;SDS011;410;48.954;9.474;2024-02-16T08:14:40;8.10;;;4.87;;
846;SDS011;410;48.954;9.474;2024-02-16T08:16:43;7.20;;;5.47;;
846;SDS011;410;48.954;9.474;2024-02-16T08:18:47;8.47;;;5.83;;
846;SDS011;410;48.954;9.474;2024-02-16T08:20:52;8.97;;;6.20;;
846;SDS011;410;48.954;9.474;2024-02-16T08:22:55;9.27;;;5.80;;
846;SDS011;410;48.954;9.474;2024-02-16T08:24:59;10.40;;;6.47;;
846;SDS011;410;48.954;9.474;2024-02-16T08:27:04;10.40;;;6.00;;
846;SDS011;410;48.954;9.474;2024-02-16T08:29:08;8.50;;;6.17;;
846;SDS011;410;48.954;9.474;2024-02-16T08:31:15;13.43;;;6.97;;
846;SDS011;410;48.954;9.474;2024-02-16T08:33:19;11.03;;;7.37;;
846;SDS011;410;48.954;9.474;2024-02-16T08:35:23;12.83;;;7.50;;
846;SDS011;410;48.954;9.474;2024-02-16T08:37:26;11.77;;;7.40;;
846;SDS011;410;48.954;9.474;2024-02-16T08:39:30;11.83;;;7.47;;
846;SDS011;410;48.954;9.474;2024-02-16T08:41:34;10.70;;;6.87;;
846;SDS011;410;48.954;9.474;2024-02-16T08:43:38;10.63;;;6.53;;
846;SDS011;410;48.954;9.474;2024-02-16T08:45:42;13.30;;;7.17;;
846;SDS011;410;48.954;9.474;2024-02-16T08:47:45;7.93;;;6.27;;
846;SDS011;410;48.954;9.474;2024-02-16T08:49:53;13.23;;;6.50;;
846;SDS011;410;48.954;9.474;2024-02-16T08:51:58;12.40;;;7.80;;
846;SDS011;410;48.954;9.474;2024-02-16T08:54:01;17.00;;;10.53;;
846;SDS011;410;48.954;9.474;2024-02-16T08:56:10;10.57;;;8.60;;
846;SDS011;410;48.954;9.474;2024-02-16T08:58:13;11.67;;;8.80;;
846;SDS011;410;48.954;9.474;2024-02-16T09:00:18;11.53;;;8.07;;
846;SDS011;410;48.954;9.474;2024-02-16T09:02:22;13.77;;;9.27;;
846;SDS011;410;48.954;9.474;2024-02-16T09:04:25;11.93;;;9.23;;
846;SDS011;410;48.954;9.474;2024-02-16T09:06:27;9.57;;;7.87;;
846;SDS011;410;48.954;9.474;2024-02-16T09:08:31;9.47;;;7.77;;
846;SDS011;410;48.954;9.474;2024-02-16T09:10:35;11.20;;;8.13;;
846;SDS011;410;48.954;9.474;2024-02-16T09:12:39;13.10;;;7.37;;
846;SDS011;410;48.954;9.474;2024-02-16T09:14:42;11.30;;;7.60;;
846;SDS011;410;48.954;9.474;2024-02-16T09:16:49;12.50;;;7.40;;
846;SDS011;410;48.954;9.474;2024-02-16T09:18:54;9.33;;;7.13;;
846;SDS011;410;48.954;9.474;2024-02-16T09:20:57;10.90;;;7.20;;
846;SDS011;410;48.954;9.474;2024-02-16T09:23:00;8.30;;;6.77;;
846;SDS011;410;48.954;9.474;2024-02-16T09:25:03;15.17;;;8.43;;
846;SDS011;410;48.954;9.474;2024-02-16T09:27:07;14.97;;;9.57;;
846;SDS011;410;48.954;9.474;2024-02-16T09:29:12;12.73;;;9.40;;
846;SDS011;410;48.954;9.474;2024-02-16T09:31:14;14.40;;;9.50;;
846;SDS011;410;48.954;9.474;2024-02-16T09:33:19;13.03;;;9.17;;
846;SDS011;410;48.954;9.474;2024-02-16T09:35:23;10.90;;;7.60;;
846;SDS011;410;48.954;9.474;2024-02-16T09:37:26;9.10;;;6.63;;
846;SDS011;410;48.954;9.474;2024-02-16T09:39:29;6.10;;;4.50;;
846;SDS011;410;48.954;9.474;2024-02-16T09:41:34;5.97;;;4.17;;
846;SDS011;410;48.954;9.474;2024-02-16T09:43:37;6.03;;;4.57;;
846;SDS011;410;48.954;9.474;2024-02-16T09:45:42;6.30;;;3.77;;
846;SDS011;410;48.954;9.474;2024-02-16T09:47:45;5.40;;;3.60;;
846;SDS011;410;48.954;9.474;2024-02-16T09:50:03;12.60;;;9.43;;
846;SDS011;410;48.954;9.474;2024-02-16T09:52:08;12.50;;;8.67;;
846;SDS011;410;48.954;9.474;2024-02-16T09:54:14;11.33;;;8.30;;
846;SDS011;410;48.954;9.474;2024-02-16T09:56:17;9.90;;;7.53;;
846;SDS011;410;48.954;9.474;2024-02-16T09:58:21;8.10;;;6.57;;
846;SDS011;410;48.954;9.474;2024-02-16T10:00:25;4.40;;;3.27;;
846;SDS011;410;48.954;9.474;2024-02-16T10:02:27;7.13;;;5.30;;
846;SDS011;410;48.954;9.474;2024-02-16T10:04:31;5.57;;;4.43;;
846;SDS011;410;48.954;9.474;2024-02-16T10:06:48;7.70;;;5.10;;
846;SDS011;410;48.954;9.474;2024-02-16T10:08:52;6.97;;;4.40;;
846;SDS011;410;48.954;9.474;2024-02-16T10:11:01;6.73;;;4.07;;
846;SDS011;410;48.954;9.474;2024-02-16T10:13:05;5.07;;;4.20;;
846;SDS011;410;48.954;9.474;2024-02-16T10:15:09;6.33;;;4.20;;
846;SDS011;410;48.954;9.474;2024-02-16T10:17:15;5.90;;;3.77;;
846;SDS011;410;48.954;9.474;2024-02-16T10:19:19;7.10;;;4.63;;
846;SDS011;410;48.954;9.474;2024-02-16T10:21:26;8.83;;;4.10;;
846;SDS011;410;48.954;9.474;2024-02-16T10:23:33;5.70;;;3.47;;
846;SDS011;410;48.954;9.474;2024-02-16T10:25:44;5.10;;;3.70;;
846;SDS011;410;48.954;9.474;2024-02-16T10:27:48;5.80;;;4.10;;
846;SDS011;410;48.954;9.474;2024-02-16T10:29:53;6.23;;;3.43;;
846;SDS011;410;48.954;9.474;2024-02-16T10:31:57;4.83;;;3.50;;
846;SDS011;410;48.954;9.474;2024-02-16T10:34:00;5.13;;;3.67;;
846;SDS011;410;48.954;9.474;2024-02-16T10:36:07;5.30;;;3.60;;
846;SDS011;410;48.954;9.474;2024-02-16T10:38:10;6.10;;;3.50;;
846;SDS011;410;48.954;9.474;2024-02-16T10:40:17;6.33;;;3.90;;
846;SDS011;410;48.954;9.474;2024-02-16T10:42:21;5.83;;;3.87;;
846;SDS011;410;48.954;9.474;2024-02-16T10:44:27;6.07;;;4.00;;
846;SDS011;410;48.954;9.474;2024-02-16T10:46:31;5.20;;;3.33;;
846;SDS011;410;48.954;9.474;2024-02-16T10:48:34;4.60;;;2.93;;
846;SDS011;410;48.954;9.474;2024-02-16T10:50:38;5.27;;;3.37;;
846;SDS011;410;48.954;9.474;2024-02-16T10:52:42;4.27;;;2.93;;
846;SDS011;410;48.954;9.474;2024-02-16T10:54:47;4.00;;;2.90;;
846;SDS011;410;48.954;9.474;2024-02-16T10:56:52;4.33;;;3.20;;
846;SDS011;410;48.954;9.474;2024-02-16T10:58:56;4.73;;;3.40;;
846;SDS011;410;48.954;9.474;2024-02-16T11:01:07;5.47;;;3.37;;
846;SDS011;410;48.954;9.474;2024-02-16T11:03:15;5.00;;;3.40;;
846;SDS011;410;48.954;9.474;2024-02-16T11:05:19;5.50;;;3.43;;
846;SDS011;410;48.954;9.474;2024-02-16T11:07:22;5.70;;;3.20;;
846;SDS011;410;48.954;9.474;2024-02-16T11:09:28;4.30;;;3.00;;
846;SDS011;410;48.954;9.474;2024-02-16T11:11:31;7.03;;;3.27;;
846;SDS011;410;48.954;9.474;2024-02-16T11:13:37;6.43;;;3.47;;
846;SDS011;410;48.954;9.474;2024-02-16T11:15:42;5.77;;;3.10;;
846;SDS011;410;48.954;9.474;2024-02-16T11:17:45;3.83;;;2.90;;
846;SDS011;410;48.954;9.474;2024-02-16T11:19:49;5.90;;;3.10;;
846;SDS011;410;48.954;9.474;2024-02-16T11:21:56;5.13;;;3.00;;
846;SDS011;410;48.954;9.474;2024-02-16T11:24:03;5.00;;;3.40;;
846;SDS011;410;48.954;9.474;2024-02-16T11:26:10;5.43;;;3.23;;
846;SDS011;410;48.954;9.474;2024-02-16T11:28:14;4.70;;;3.07;;
846;SDS011;410;48.954;9.474;2024-02-16T11:30:19;4.53;;;3.00;;
846;SDS011;410;48.954;9.474;2024-02-16T11:32:23;3.60;;;2.80;;
846;SDS011;410;48.954;9.474;2024-02-16T11:34:25;4.80;;;2.60;;
846;SDS011;410;48.954;9.474;2024-02-16T11:36:29;5.57;;;3.00;;
846;SDS011;410;48.954;9.474;2024-02-16T11:38:32;5.73;;;2.90;;
846;SDS011;410;48.954;9.474;2024-02-16T11:40:36;4.53;;;2.93;;
846;SDS011;410;48.954;9.474;2024-02-16T11:42:39;6.03;;;5.00;;
846;SDS011;410;48.954;9.474;2024-02-16T11:44:50;6.97;;;4.40;;
846;SDS011;410;48.954;9.474;2024-02-16T11:46:56;7.30;;;3.23;;
846;SDS011;410;48.954;9.474;2024-02-16T11:49:04;6.40;;;3.37;;
846;SDS011;410;48.954;9.474;2024-02-16T11:51:08;5.40;;;2.60;;
846;SDS011;410;48.954;9.474;2024-02-16T11:53:10;7.80;;;5.03;;
846;SDS011;410;48.954;9.474;2024-02-16T11:55:18;6.70;;;4.20;;
846;SDS011;410;48.954;9.474;2024-02-16T11:57:22;5.47;;;3.10;;
846;SDS011;410;48.954;9.474;2024-02-16T11:59:26;6.43;;;2.97;;
846;SDS011;410;48.954;9.474;2024-02-16T12:01:30;5.40;;;2.90;;
846;SDS011;410;48.954;9.474;2024-02-16T12:03:37;4.23;;;2.60;;
846;SDS011;410;48.954;9.474;2024-02-16T12:05:49;7.00;;;3.37;;
846;SDS011;410;48.954;9.474;2024-02-16T12:07:51;3.97;;;2.40;;
846;SDS011;410;48.954;9.474;2024-02-16T12:09:56;5.03;;;2.60;;
846;SDS011;410;48.954;9.474;2024-02-16T12:11:59;5.63;;;2.10;;
846;SDS011;410;48.954;9.474;2024-02-16T12:14:03;5.33;;;2.37;;
846;SDS011;410;48.954;9.474;2024-02-16T12:16:07;5.70;;;2.60;;
846;SDS011;410;48.954;9.474;2024-02-16T12:18:10;5.40;;;2.47;;
846;SDS011;410;48.954;9.474;2024-02-16T12:20:18;4.63;;;2.87;;
846;SDS011;410;48.954;9.474;2024-02-16T12:22:20;5.13;;;2.53;;
846;SDS011;410;48.954;9.474;2024-02-16T12:24:24;3.57;;;2.13;;
846;SDS011;410;48.954;9.474;2024-02-16T12:26:27;4.30;;;2.73;;
846;SDS011;410;48.954;9.474;2024-02-16T12:28:31;4.63;;;2.40;;
846;SDS011;410;48.954;9.474;2024-02-16T12:30:34;4.83;;;2.40;;
846;SDS011;410;48.954;9.474;2024-02-16T12:32:37;3.80;;;2.40;;
846;SDS011;410;48.954;9.474;2024-02-16T12:34:40;4.90;;;2.30;;
846;SDS011;410;48.954;9.474;2024-02-16T12:36:45;3.80;;;2.20;;
846;SDS011;410;48.954;9.474;2024-02-16T12:38:51;5.90;;;2.60;;
846;SDS011;410;48.954;9.474;2024-02-16T12:40:55;4.27;;;2.13;;
846;SDS011;410;48.954;9.474;2024-02-16T12:42:58;5.90;;;2.70;;
846;SDS011;410;48.954;9.474;2024-02-16T12:45:01;6.10;;;2.87;;
846;SDS011;410;48.954;9.474;2024-02-16T12:47:05;4.40;;;2.83;;
846;SDS011;410;48.954;9.474;2024-02-16T12:49:08;3.90;;;2.37;;
846;SDS011;410;48.954;9.474;2024-02-16T12:51:12;5.20;;;2.50;;
846;SDS011;410;48.954;9.474;2024-02-16T12:53:17;4.93;;;2.73;;
846;SDS011;410;48.954;9.474;2024-02-16T12:55:20;5.27;;;2.90;;
846;SDS011;410;48.954;9.474;2024-02-16T12:57:22;5.10;;;2.30;;
846;SDS011;410;48.954;9.474;2024-02-16T12:59:26;4.30;;;2.60;;
846;SDS011;410;48.954;9.474;2024-02-16T13:01:29;3.97;;;2.50;;
846;SDS011;410;48.954;9.474;2024-02-16T13:03:33;6.60;;;3.30;;
846;SDS011;410;48.954;9.474;2024-02-16T13:05:36;4.53;;;2.77;;
846;SDS011;410;48.954;9.474;2024-02-16T13:07:41;5.63;;;2.80;;
846;SDS011;410;48.954;9.474;2024-02-16T13:09:45;5.43;;;2.73;;
846;SDS011;410;48.954;9.474;2024-02-16T13:11:48;5.27;;;3.10;;
846;SDS011;410;48.954;9.474;2024-02-16T13:13:56;7.00;;;3.63;;